sensor_id;sensor_type;location;lat;lon;timestamp;P1;durP1;ratioP1;P2;durP2;ratioP2
7669;SDS011;3877;42.562;27.636;2023-04-29T00:01:36;8.97;;;3.83;;
7669;SDS011;3877;42.562;27.636;2023-04-29T00:04:03;9.03;;;3.80;;
7669;SDS011;3877;42.562;27.636;2023-04-29T00:06:31;8.93;;;3.70;;
7669;SDS011;3877;42.562;27.636;2023-04-29T00:08:58;7.13;;;4.13;;
7669;SDS011;3877;42.562;27.636;2023-04-29T00:11:25;7.07;;;3.77;;
7669;SDS011;3877;42.562;27.636;2023-04-29T00:13:52;5.30;;;3.77;;
7669;SDS011;3877;42.562;27.636;2023-04-29T00:16:19;6.23;;;3.67;;
7669;SDS011;3877;42.562;27.636;2023-04-29T00:18:46;7.47;;;3.80;;
7669;SDS011;3877;42.562;27.636;2023-04-29T00:21:13;6.67;;;4.17;;
7669;SDS011;3877;42.562;27.636;2023-04-29T00:23:41;8.40;;;3.97;;
7669;SDS011;3877;42.562;27.636;2023-04-29T00:26:08;8.10;;;3.83;;
7669;SDS011;3877;42.562;27.636;2023-04-29T00:28:34;7.53;;;3.93;;
7669;SDS011;3877;42.562;27.636;2023-04-29T00:31:01;7.60;;;4.23;;
7669;SDS011;3877;42.562;27.636;2023-04-29T00:33:28;7.47;;;3.83;;
7669;SDS011;3877;42.562;27.636;2023-04-29T00:35:55;6.47;;;3.83;;
7669;SDS011;3877;42.562;27.636;2023-04-29T00:38:22;8.47;;;4.20;;
7669;SDS011;3877;42.562;27.636;2023-04-29T00:40:50;6.67;;;3.83;;
7669;SDS011;3877;42.562;27.636;2023-04-29T00:43:17;7.80;;;3.93;;
7669;SDS011;3877;42.562;27.636;2023-04-29T00:45:44;5.77;;;3.70;;
7669;SDS011;3877;42.562;27.636;2023-04-29T00:48:11;7.00;;;3.80;;
7669;SDS011;3877;42.562;27.636;2023-04-29T00:50:39;6.47;;;3.90;;
7669;SDS011;3877;42.562;27.636;2023-04-29T00:53:06;9.00;;;3.63;;
7669;SDS011;3877;42.562;27.636;2023-04-29T00:55:33;9.10;;;3.97;;
7669;SDS011;3877;42.562;27.636;2023-04-29T00:58:02;6.10;;;3.83;;
7669;SDS011;3877;42.562;27.636;2023-04-29T01:00:29;8.53;;;4.37;;
7669;SDS011;3877;42.562;27.636;2023-04-29T01:02:56;7.03;;;4.17;;
7669;SDS011;3877;42.562;27.636;2023-04-29T01:05:24;4.97;;;3.80;;
7669;SDS011;3877;42.562;27.636;2023-04-29T01:07:53;8.73;;;4.20;;
7669;SDS011;3877;42.562;27.636;2023-04-29T01:10:25;6.33;;;3.80;;
7669;SDS011;3877;42.562;27.636;2023-04-29T01:12:54;7.53;;;4.00;;
7669;SDS011;3877;42.562;27.636;2023-04-29T01:15:29;7.87;;;4.00;;
7669;SDS011;3877;42.562;27.636;2023-04-29T01:17:58;6.37;;;3.97;;
7669;SDS011;3877;42.562;27.636;2023-04-29T01:20:25;7.90;;;4.20;;
7669;SDS011;3877;42.562;27.636;2023-04-29T01:22:52;7.57;;;4.33;;
7669;SDS011;3877;42.562;27.636;2023-04-29T01:25:21;7.60;;;4.10;;
7669;SDS011;3877;42.562;27.636;2023-04-29T01:27:50;11.27;;;4.17;;
7669;SDS011;3877;42.562;27.636;2023-04-29T01:30:20;7.53;;;4.00;;
7669;SDS011;3877;42.562;27.636;2023-04-29T01:32:54;8.03;;;3.93;;
7669;SDS011;3877;42.562;27.636;2023-04-29T01:35:33;9.53;;;4.37;;
7669;SDS011;3877;42.562;27.636;2023-04-29T01:38:06;8.23;;;4.13;;
7669;SDS011;3877;42.562;27.636;2023-04-29T01:40:42;6.60;;;4.17;;
7669;SDS011;3877;42.562;27.636;2023-04-29T01:43:09;10.07;;;4.23;;
7669;SDS011;3877;42.562;27.636;2023-04-29T01:45:37;6.70;;;3.70;;
7669;SDS011;3877;42.562;27.636;2023-04-29T01:48:05;8.30;;;4.23;;
7669;SDS011;3877;42.562;27.636;2023-04-29T01:50:32;7.90;;;4.17;;
7669;SDS011;3877;42.562;27.636;2023-04-29T01:52:59;10.63;;;3.93;;
7669;SDS011;3877;42.562;27.636;2023-04-29T01:55:26;9.13;;;4.27;;
7669;SDS011;3877;42.562;27.636;2023-04-29T01:57:54;6.17;;;3.87;;
7669;SDS011;3877;42.562;27.636;2023-04-29T02:00:21;10.20;;;4.27;;
7669;SDS011;3877;42.562;27.636;2023-04-29T02:02:48;8.93;;;4.30;;
7669;SDS011;3877;42.562;27.636;2023-04-29T02:05:15;6.07;;;4.07;;
7669;SDS011;3877;42.562;27.636;2023-04-29T02:07:42;5.67;;;4.00;;
7669;SDS011;3877;42.562;27.636;2023-04-29T02:10:10;5.33;;;4.20;;
7669;SDS011;3877;42.562;27.636;2023-04-29T02:12:37;6.80;;;4.30;;
7669;SDS011;3877;42.562;27.636;2023-04-29T02:15:06;7.03;;;4.17;;
7669;SDS011;3877;42.562;27.636;2023-04-29T02:17:33;6.77;;;4.03;;
7669;SDS011;3877;42.562;27.636;2023-04-29T02:20:00;8.67;;;5.10;;
7669;SDS011;3877;42.562;27.636;2023-04-29T02:22:26;7.77;;;4.30;;
7669;SDS011;3877;42.562;27.636;2023-04-29T02:24:53;8.53;;;4.47;;
7669;SDS011;3877;42.562;27.636;2023-04-29T02:27:20;8.83;;;4.10;;
7669;SDS011;3877;42.562;27.636;2023-04-29T02:29:47;7.60;;;4.70;;
7669;SDS011;3877;42.562;27.636;2023-04-29T02:32:17;6.90;;;4.17;;
7669;SDS011;3877;42.562;27.636;2023-04-29T02:34:44;5.97;;;4.00;;
7669;SDS011;3877;42.562;27.636;2023-04-29T02:37:11;6.20;;;3.93;;
7669;SDS011;3877;42.562;27.636;2023-04-29T02:39:38;8.87;;;4.33;;
7669;SDS011;3877;42.562;27.636;2023-04-29T02:42:05;7.67;;;4.07;;
7669;SDS011;3877;42.562;27.636;2023-04-29T02:44:32;8.77;;;3.80;;
7669;SDS011;3877;42.562;27.636;2023-04-29T02:46:59;8.20;;;4.10;;
7669;SDS011;3877;42.562;27.636;2023-04-29T02:49:27;7.90;;;4.13;;
7669;SDS011;3877;42.562;27.636;2023-04-29T02:51:54;8.63;;;4.53;;
7669;SDS011;3877;42.562;27.636;2023-04-29T02:54:21;9.33;;;4.40;;
7669;SDS011;3877;42.562;27.636;2023-04-29T02:56:48;7.80;;;3.97;;
7669;SDS011;3877;42.562;27.636;2023-04-29T02:59:14;7.83;;;4.40;;
7669;SDS011;3877;42.562;27.636;2023-04-29T03:01:41;7.53;;;3.87;;
7669;SDS011;3877;42.562;27.636;2023-04-29T03:04:08;6.27;;;4.23;;
7669;SDS011;3877;42.562;27.636;2023-04-29T03:06:37;13.83;;;4.43;;
7669;SDS011;3877;42.562;27.636;2023-04-29T03:09:04;8.63;;;3.97;;
7669;SDS011;3877;42.562;27.636;2023-04-29T03:11:31;8.97;;;4.57;;
7669;SDS011;3877;42.562;27.636;2023-04-29T03:13:58;7.07;;;4.60;;
7669;SDS011;3877;42.562;27.636;2023-04-29T03:16:25;7.77;;;4.40;;
7669;SDS011;3877;42.562;27.636;2023-04-29T03:18:53;8.57;;;4.50;;
7669;SDS011;3877;42.562;27.636;2023-04-29T03:21:20;10.23;;;4.70;;
7669;SDS011;3877;42.562;27.636;2023-04-29T03:23:48;8.20;;;4.43;;
7669;SDS011;3877;42.562;27.636;2023-04-29T03:26:15;8.60;;;5.60;;
7669;SDS011;3877;42.562;27.636;2023-04-29T03:28:42;10.53;;;4.90;;
7669;SDS011;3877;42.562;27.636;2023-04-29T03:31:09;7.07;;;4.30;;
7669;SDS011;3877;42.562;27.636;2023-04-29T03:33:36;6.07;;;4.37;;
7669;SDS011;3877;42.562;27.636;2023-04-29T03:36:03;8.77;;;4.83;;
7669;SDS011;3877;42.562;27.636;2023-04-29T03:38:30;7.13;;;4.50;;
7669;SDS011;3877;42.562;27.636;2023-04-29T03:40:58;7.83;;;4.70;;
7669;SDS011;3877;42.562;27.636;2023-04-29T03:43:25;9.23;;;5.20;;
7669;SDS011;3877;42.562;27.636;2023-04-29T03:45:52;8.87;;;4.40;;
7669;SDS011;3877;42.562;27.636;2023-04-29T03:48:19;7.33;;;4.23;;
7669;SDS011;3877;42.562;27.636;2023-04-29T03:50:46;7.93;;;4.57;;
7669;SDS011;3877;42.562;27.636;2023-04-29T03:53:13;8.83;;;3.80;;
7669;SDS011;3877;42.562;27.636;2023-04-29T03:55:40;6.67;;;4.23;;
7669;SDS011;3877;42.562;27.636;2023-04-29T03:58:08;6.93;;;4.07;;
7669;SDS011;3877;42.562;27.636;2023-04-29T04:00:35;7.07;;;3.87;;
7669;SDS011;3877;42.562;27.636;2023-04-29T04:03:02;11.97;;;3.80;;
7669;SDS011;3877;42.562;27.636;2023-04-29T04:05:29;7.37;;;3.73;;
7669;SDS011;3877;42.562;27.636;2023-04-29T04:07:56;8.43;;;3.90;;
7669;SDS011;3877;42.562;27.636;2023-04-29T04:10:24;6.13;;;3.60;;
7669;SDS011;3877;42.562;27.636;2023-04-29T04:12:52;6.50;;;3.70;;
7669;SDS011;3877;42.562;27.636;2023-04-29T04:15:20;9.03;;;3.60;;
7669;SDS011;3877;42.562;27.636;2023-04-29T04:17:47;7.37;;;3.47;;
7669;SDS011;3877;42.562;27.636;2023-04-29T04:20:14;7.00;;;3.40;;
7669;SDS011;3877;42.562;27.636;2023-04-29T04:22:41;6.83;;;3.70;;
7669;SDS011;3877;42.562;27.636;2023-04-29T04:25:09;7.07;;;3.70;;
7669;SDS011;3877;42.562;27.636;2023-04-29T04:27:35;8.83;;;3.47;;
7669;SDS011;3877;42.562;27.636;2023-04-29T04:30:02;6.67;;;3.60;;
7669;SDS011;3877;42.562;27.636;2023-04-29T04:32:31;7.63;;;3.38;;
7669;SDS011;3877;42.562;27.636;2023-04-29T04:34:58;5.32;;;3.40;;
7669;SDS011;3877;42.562;27.636;2023-04-29T04:37:24;6.73;;;3.40;;
7669;SDS011;3877;42.562;27.636;2023-04-29T04:39:52;7.03;;;3.20;;
7669;SDS011;3877;42.562;27.636;2023-04-29T04:42:19;5.95;;;3.10;;
7669;SDS011;3877;42.562;27.636;2023-04-29T04:44:47;6.70;;;3.30;;
7669;SDS011;3877;42.562;27.636;2023-04-29T04:47:14;5.78;;;3.38;;
7669;SDS011;3877;42.562;27.636;2023-04-29T04:49:42;8.85;;;3.42;;
7669;SDS011;3877;42.562;27.636;2023-04-29T04:52:09;5.75;;;3.15;;
7669;SDS011;3877;42.562;27.636;2023-04-29T04:54:37;5.25;;;3.00;;
7669;SDS011;3877;42.562;27.636;2023-04-29T04:57:03;9.38;;;3.75;;
7669;SDS011;3877;42.562;27.636;2023-04-29T04:59:30;4.88;;;3.20;;
7669;SDS011;3877;42.562;27.636;2023-04-29T05:01:58;5.97;;;3.20;;
7669;SDS011;3877;42.562;27.636;2023-04-29T05:04:25;7.05;;;2.97;;
7669;SDS011;3877;42.562;27.636;2023-04-29T05:06:54;12.95;;;3.45;;
7669;SDS011;3877;42.562;27.636;2023-04-29T05:09:21;6.13;;;2.97;;
7669;SDS011;3877;42.562;27.636;2023-04-29T05:11:48;4.93;;;3.13;;
7669;SDS011;3877;42.562;27.636;2023-04-29T05:14:15;4.85;;;3.00;;
7669;SDS011;3877;42.562;27.636;2023-04-29T05:16:42;5.53;;;3.03;;
7669;SDS011;3877;42.562;27.636;2023-04-29T05:19:10;5.97;;;3.05;;
7669;SDS011;3877;42.562;27.636;2023-04-29T05:21:37;5.30;;;3.10;;
7669;SDS011;3877;42.562;27.636;2023-04-29T05:24:05;4.90;;;2.80;;
7669;SDS011;3877;42.562;27.636;2023-04-29T05:26:32;3.65;;;2.80;;
7669;SDS011;3877;42.562;27.636;2023-04-29T05:28:59;7.70;;;3.05;;
7669;SDS011;3877;42.562;27.636;2023-04-29T05:31:26;5.15;;;2.78;;
7669;SDS011;3877;42.562;27.636;2023-04-29T05:33:53;8.15;;;3.20;;
7669;SDS011;3877;42.562;27.636;2023-04-29T05:36:20;8.02;;;3.10;;
7669;SDS011;3877;42.562;27.636;2023-04-29T05:38:47;5.70;;;2.92;;
7669;SDS011;3877;42.562;27.636;2023-04-29T05:41:15;7.28;;;3.13;;
7669;SDS011;3877;42.562;27.636;2023-04-29T05:43:42;8.30;;;3.50;;
7669;SDS011;3877;42.562;27.636;2023-04-29T05:46:09;7.05;;;3.05;;
7669;SDS011;3877;42.562;27.636;2023-04-29T05:48:36;4.57;;;2.90;;
7669;SDS011;3877;42.562;27.636;2023-04-29T05:51:03;10.52;;;3.38;;
7669;SDS011;3877;42.562;27.636;2023-04-29T05:53:30;5.03;;;2.88;;
7669;SDS011;3877;42.562;27.636;2023-04-29T05:55:57;6.80;;;2.80;;
7669;SDS011;3877;42.562;27.636;2023-04-29T05:58:25;5.30;;;2.60;;
7669;SDS011;3877;42.562;27.636;2023-04-29T06:00:52;4.38;;;3.28;;
7669;SDS011;3877;42.562;27.636;2023-04-29T06:03:19;5.97;;;2.92;;
7669;SDS011;3877;42.562;27.636;2023-04-29T06:05:46;4.72;;;3.20;;
7669;SDS011;3877;42.562;27.636;2023-04-29T06:08:13;4.38;;;2.83;;
7669;SDS011;3877;42.562;27.636;2023-04-29T06:10:39;7.10;;;3.03;;
7669;SDS011;3877;42.562;27.636;2023-04-29T06:13:06;8.27;;;2.90;;
7669;SDS011;3877;42.562;27.636;2023-04-29T06:15:35;7.32;;;2.78;;
7669;SDS011;3877;42.562;27.636;2023-04-29T06:18:01;8.20;;;3.17;;
7669;SDS011;3877;42.562;27.636;2023-04-29T06:20:28;9.13;;;3.20;;
7669;SDS011;3877;42.562;27.636;2023-04-29T06:22:55;4.18;;;2.72;;
7669;SDS011;3877;42.562;27.636;2023-04-29T06:25:22;6.00;;;3.20;;
7669;SDS011;3877;42.562;27.636;2023-04-29T06:27:49;8.10;;;3.05;;
7669;SDS011;3877;42.562;27.636;2023-04-29T06:30:15;9.27;;;3.10;;
7669;SDS011;3877;42.562;27.636;2023-04-29T06:32:44;5.97;;;2.90;;
7669;SDS011;3877;42.562;27.636;2023-04-29T06:35:10;9.77;;;3.25;;
7669;SDS011;3877;42.562;27.636;2023-04-29T06:37:37;5.70;;;3.20;;
7669;SDS011;3877;42.562;27.636;2023-04-29T06:40:04;4.47;;;3.17;;
7669;SDS011;3877;42.562;27.636;2023-04-29T06:42:32;5.30;;;2.60;;
7669;SDS011;3877;42.562;27.636;2023-04-29T06:44:58;7.55;;;3.10;;
7669;SDS011;3877;42.562;27.636;2023-04-29T06:47:26;9.45;;;3.45;;
7669;SDS011;3877;42.562;27.636;2023-04-29T06:49:56;10.63;;;3.22;;
7669;SDS011;3877;42.562;27.636;2023-04-29T06:52:23;7.57;;;3.20;;
7669;SDS011;3877;42.562;27.636;2023-04-29T06:54:50;7.88;;;2.70;;
7669;SDS011;3877;42.562;27.636;2023-04-29T06:57:17;6.32;;;3.22;;
7669;SDS011;3877;42.562;27.636;2023-04-29T06:59:44;6.38;;;2.80;;
7669;SDS011;3877;42.562;27.636;2023-04-29T07:02:11;8.75;;;3.03;;
7669;SDS011;3877;42.562;27.636;2023-04-29T07:04:39;7.50;;;3.00;;
7669;SDS011;3877;42.562;27.636;2023-04-29T07:07:07;9.70;;;3.08;;
7669;SDS011;3877;42.562;27.636;2023-04-29T07:09:34;7.82;;;3.40;;
7669;SDS011;3877;42.562;27.636;2023-04-29T07:12:01;6.38;;;3.17;;
7669;SDS011;3877;42.562;27.636;2023-04-29T07:14:29;7.35;;;2.90;;
7669;SDS011;3877;42.562;27.636;2023-04-29T07:16:56;4.25;;;2.42;;
7669;SDS011;3877;42.562;27.636;2023-04-29T07:19:23;7.10;;;3.37;;
7669;SDS011;3877;42.562;27.636;2023-04-29T07:21:50;5.00;;;3.00;;
7669;SDS011;3877;42.562;27.636;2023-04-29T07:24:18;4.75;;;3.15;;
7669;SDS011;3877;42.562;27.636;2023-04-29T07:26:47;4.07;;;2.90;;
7669;SDS011;3877;42.562;27.636;2023-04-29T07:29:14;5.72;;;3.00;;
7669;SDS011;3877;42.562;27.636;2023-04-29T07:31:41;6.28;;;2.97;;
7669;SDS011;3877;42.562;27.636;2023-04-29T07:34:08;6.80;;;3.08;;
7669;SDS011;3877;42.562;27.636;2023-04-29T07:36:35;8.50;;;2.92;;
7669;SDS011;3877;42.562;27.636;2023-04-29T07:39:02;7.95;;;2.97;;
7669;SDS011;3877;42.562;27.636;2023-04-29T07:41:30;4.38;;;2.90;;
7669;SDS011;3877;42.562;27.636;2023-04-29T07:43:57;8.15;;;3.33;;
7669;SDS011;3877;42.562;27.636;2023-04-29T07:46:24;4.57;;;2.67;;
7669;SDS011;3877;42.562;27.636;2023-04-29T07:48:51;5.95;;;2.92;;
7669;SDS011;3877;42.562;27.636;2023-04-29T07:51:18;9.40;;;3.38;;
7669;SDS011;3877;42.562;27.636;2023-04-29T07:53:45;11.15;;;3.05;;
7669;SDS011;3877;42.562;27.636;2023-04-29T07:56:13;4.72;;;2.60;;
7669;SDS011;3877;42.562;27.636;2023-04-29T07:58:41;5.78;;;2.70;;
7669;SDS011;3877;42.562;27.636;2023-04-29T08:01:09;8.95;;;2.83;;
7669;SDS011;3877;42.562;27.636;2023-04-29T08:03:36;6.90;;;3.25;;
7669;SDS011;3877;42.562;27.636;2023-04-29T08:06:04;11.18;;;2.90;;
7669;SDS011;3877;42.562;27.636;2023-04-29T08:08:31;9.93;;;3.20;;
7669;SDS011;3877;42.562;27.636;2023-04-29T08:10:58;6.45;;;3.35;;
7669;SDS011;3877;42.562;27.636;2023-04-29T08:13:25;9.82;;;3.25;;
7669;SDS011;3877;42.562;27.636;2023-04-29T08:15:53;4.70;;;2.70;;
7669;SDS011;3877;42.562;27.636;2023-04-29T08:18:20;4.60;;;2.92;;
7669;SDS011;3877;42.562;27.636;2023-04-29T08:20:47;4.43;;;2.53;;
7669;SDS011;3877;42.562;27.636;2023-04-29T08:23:15;9.27;;;3.03;;
7669;SDS011;3877;42.562;27.636;2023-04-29T08:25:42;9.95;;;3.20;;
7669;SDS011;3877;42.562;27.636;2023-04-29T08:28:09;6.18;;;2.90;;
7669;SDS011;3877;42.562;27.636;2023-04-29T08:30:36;5.70;;;2.90;;
7669;SDS011;3877;42.562;27.636;2023-04-29T08:33:05;4.70;;;3.10;;
7669;SDS011;3877;42.562;27.636;2023-04-29T08:35:32;7.70;;;2.93;;
7669;SDS011;3877;42.562;27.636;2023-04-29T08:37:59;5.32;;;2.80;;
7669;SDS011;3877;42.562;27.636;2023-04-29T08:40:26;4.65;;;2.88;;
7669;SDS011;3877;42.562;27.636;2023-04-29T08:42:54;6.88;;;2.78;;
7669;SDS011;3877;42.562;27.636;2023-04-29T08:45:22;9.02;;;2.95;;
7669;SDS011;3877;42.562;27.636;2023-04-29T08:47:50;7.95;;;3.47;;
7669;SDS011;3877;42.562;27.636;2023-04-29T08:50:19;5.68;;;3.35;;
7669;SDS011;3877;42.562;27.636;2023-04-29T08:52:46;6.30;;;3.07;;
7669;SDS011;3877;42.562;27.636;2023-04-29T08:55:13;4.80;;;3.13;;
7669;SDS011;3877;42.562;27.636;2023-04-29T08:57:40;5.90;;;3.17;;
7669;SDS011;3877;42.562;27.636;2023-04-29T09:00:08;4.75;;;3.20;;
7669;SDS011;3877;42.562;27.636;2023-04-29T09:02:37;9.82;;;3.65;;
7669;SDS011;3877;42.562;27.636;2023-04-29T09:05:06;6.03;;;3.50;;
7669;SDS011;3877;42.562;27.636;2023-04-29T09:07:37;5.68;;;3.10;;
7669;SDS011;3877;42.562;27.636;2023-04-29T09:10:04;5.72;;;3.20;;
7669;SDS011;3877;42.562;27.636;2023-04-29T09:12:31;9.20;;;3.83;;
7669;SDS011;3877;42.562;27.636;2023-04-29T09:21:05;7.65;;;3.63;;
7669;SDS011;3877;42.562;27.636;2023-04-29T09:23:40;5.78;;;3.30;;
7669;SDS011;3877;42.562;27.636;2023-04-29T09:26:06;8.25;;;3.65;;
7669;SDS011;3877;42.562;27.636;2023-04-29T09:28:33;7.60;;;3.78;;
7669;SDS011;3877;42.562;27.636;2023-04-29T09:31:00;6.93;;;3.95;;
7669;SDS011;3877;42.562;27.636;2023-04-29T09:33:30;8.25;;;3.97;;
7669;SDS011;3877;42.562;27.636;2023-04-29T09:35:57;5.38;;;3.47;;
7669;SDS011;3877;42.562;27.636;2023-04-29T09:38:25;5.05;;;3.40;;
7669;SDS011;3877;42.562;27.636;2023-04-29T09:40:53;8.23;;;3.70;;
7669;SDS011;3877;42.562;27.636;2023-04-29T09:43:20;4.90;;;3.47;;
7669;SDS011;3877;42.562;27.636;2023-04-29T09:45:48;7.30;;;3.75;;
7669;SDS011;3877;42.562;27.636;2023-04-29T09:48:14;6.78;;;3.60;;
7669;SDS011;3877;42.562;27.636;2023-04-29T09:50:42;6.18;;;3.60;;
7669;SDS011;3877;42.562;27.636;2023-04-29T09:53:11;10.40;;;3.50;;
7669;SDS011;3877;42.562;27.636;2023-04-29T09:56:01;5.78;;;3.35;;
7669;SDS011;3877;42.562;27.636;2023-04-29T09:58:28;7.65;;;3.90;;
7669;SDS011;3877;42.562;27.636;2023-04-29T10:00:58;6.22;;;3.53;;
7669;SDS011;3877;42.562;27.636;2023-04-29T10:03:27;8.60;;;3.47;;
7669;SDS011;3877;42.562;27.636;2023-04-29T10:05:55;7.50;;;3.25;;
7669;SDS011;3877;42.562;27.636;2023-04-29T10:08:22;8.55;;;3.25;;
7669;SDS011;3877;42.562;27.636;2023-04-29T10:10:49;4.82;;;3.00;;
7669;SDS011;3877;42.562;27.636;2023-04-29T10:13:23;8.80;;;3.28;;
7669;SDS011;3877;42.562;27.636;2023-04-29T10:15:51;10.15;;;3.22;;
7669;SDS011;3877;42.562;27.636;2023-04-29T10:18:25;11.32;;;2.97;;
7669;SDS011;3877;42.562;27.636;2023-04-29T10:20:55;8.70;;;3.10;;
7669;SDS011;3877;42.562;27.636;2023-04-29T10:23:24;7.47;;;3.17;;
7669;SDS011;3877;42.562;27.636;2023-04-29T10:25:51;6.20;;;3.40;;
7669;SDS011;3877;42.562;27.636;2023-04-29T10:28:18;5.72;;;3.20;;
7669;SDS011;3877;42.562;27.636;2023-04-29T10:30:49;5.68;;;3.10;;
7669;SDS011;3877;42.562;27.636;2023-04-29T10:33:16;5.00;;;3.10;;
7669;SDS011;3877;42.562;27.636;2023-04-29T10:35:44;5.32;;;3.28;;
7669;SDS011;3877;42.562;27.636;2023-04-29T10:38:13;7.13;;;3.55;;
7669;SDS011;3877;42.562;27.636;2023-04-29T10:40:43;8.80;;;2.90;;
7669;SDS011;3877;42.562;27.636;2023-04-29T10:43:10;8.40;;;3.17;;
7669;SDS011;3877;42.562;27.636;2023-04-29T10:45:38;5.77;;;3.00;;
7669;SDS011;3877;42.562;27.636;2023-04-29T10:48:10;5.10;;;3.28;;
7669;SDS011;3877;42.562;27.636;2023-04-29T10:53:23;7.50;;;3.53;;
7669;SDS011;3877;42.562;27.636;2023-04-29T10:55:52;5.70;;;3.08;;
7669;SDS011;3877;42.562;27.636;2023-04-29T10:58:32;7.07;;;3.05;;
7669;SDS011;3877;42.562;27.636;2023-04-29T11:00:59;8.23;;;3.50;;
7669;SDS011;3877;42.562;27.636;2023-04-29T11:06:10;4.28;;;3.13;;
7669;SDS011;3877;42.562;27.636;2023-04-29T11:08:37;7.72;;;4.05;;
7669;SDS011;3877;42.562;27.636;2023-04-29T11:11:04;6.38;;;3.40;;
7669;SDS011;3877;42.562;27.636;2023-04-29T11:13:32;6.93;;;3.40;;
7669;SDS011;3877;42.562;27.636;2023-04-29T11:16:05;7.93;;;3.22;;
7669;SDS011;3877;42.562;27.636;2023-04-29T11:18:32;8.30;;;3.05;;
7669;SDS011;3877;42.562;27.636;2023-04-29T11:21:13;5.97;;;3.42;;
7669;SDS011;3877;42.562;27.636;2023-04-29T11:23:40;4.75;;;2.90;;
7669;SDS011;3877;42.562;27.636;2023-04-29T11:26:09;8.20;;;3.15;;
7669;SDS011;3877;42.562;27.636;2023-04-29T11:28:36;6.13;;;3.20;;
7669;SDS011;3877;42.562;27.636;2023-04-29T11:31:03;3.97;;;3.10;;
7669;SDS011;3877;42.562;27.636;2023-04-29T11:33:30;5.15;;;3.13;;
7669;SDS011;3877;42.562;27.636;2023-04-29T11:35:57;8.27;;;3.85;;
7669;SDS011;3877;42.562;27.636;2023-04-29T11:38:26;4.82;;;3.10;;
7669;SDS011;3877;42.562;27.636;2023-04-29T11:40:53;5.85;;;3.10;;
7669;SDS011;3877;42.562;27.636;2023-04-29T11:43:21;10.20;;;3.67;;
7669;SDS011;3877;42.562;27.636;2023-04-29T11:45:48;6.28;;;3.20;;
7669;SDS011;3877;42.562;27.636;2023-04-29T11:48:18;6.93;;;3.78;;
7669;SDS011;3877;42.562;27.636;2023-04-29T11:50:44;4.57;;;2.67;;
7669;SDS011;3877;42.562;27.636;2023-04-29T11:53:12;7.90;;;3.33;;
7669;SDS011;3877;42.562;27.636;2023-04-29T11:55:42;5.75;;;3.33;;
7669;SDS011;3877;42.562;27.636;2023-04-29T11:58:09;7.10;;;3.03;;
7669;SDS011;3877;42.562;27.636;2023-04-29T12:00:35;5.68;;;2.85;;
7669;SDS011;3877;42.562;27.636;2023-04-29T12:03:06;5.20;;;2.70;;
7669;SDS011;3877;42.562;27.636;2023-04-29T12:05:33;6.03;;;3.03;;
7669;SDS011;3877;42.562;27.636;2023-04-29T12:08:00;9.00;;;3.58;;
7669;SDS011;3877;42.562;27.636;2023-04-29T12:10:27;12.10;;;3.40;;
7669;SDS011;3877;42.562;27.636;2023-04-29T12:12:55;11.52;;;3.33;;
7669;SDS011;3877;42.562;27.636;2023-04-29T12:15:23;6.57;;;3.00;;
7669;SDS011;3877;42.562;27.636;2023-04-29T12:17:50;5.20;;;2.90;;
7669;SDS011;3877;42.562;27.636;2023-04-29T12:20:17;5.18;;;3.00;;
7669;SDS011;3877;42.562;27.636;2023-04-29T12:22:44;6.50;;;2.83;;
7669;SDS011;3877;42.562;27.636;2023-04-29T12:25:10;4.88;;;3.00;;
7669;SDS011;3877;42.562;27.636;2023-04-29T12:27:38;5.95;;;2.85;;
7669;SDS011;3877;42.562;27.636;2023-04-29T12:30:08;6.95;;;3.00;;
7669;SDS011;3877;42.562;27.636;2023-04-29T12:32:35;10.60;;;3.28;;
7669;SDS011;3877;42.562;27.636;2023-04-29T12:35:02;5.82;;;3.10;;
7669;SDS011;3877;42.562;27.636;2023-04-29T12:37:30;6.35;;;2.90;;
7669;SDS011;3877;42.562;27.636;2023-04-29T12:39:57;8.90;;;3.30;;
7669;SDS011;3877;42.562;27.636;2023-04-29T12:42:24;6.72;;;3.42;;
7669;SDS011;3877;42.562;27.636;2023-04-29T12:44:57;7.05;;;2.63;;
7669;SDS011;3877;42.562;27.636;2023-04-29T12:47:25;5.45;;;2.83;;
7669;SDS011;3877;42.562;27.636;2023-04-29T12:49:58;7.28;;;3.03;;
7669;SDS011;3877;42.562;27.636;2023-04-29T12:52:26;6.72;;;2.70;;
7669;SDS011;3877;42.562;27.636;2023-04-29T12:54:53;5.28;;;3.10;;
7669;SDS011;3877;42.562;27.636;2023-04-29T12:57:19;4.68;;;2.83;;
7669;SDS011;3877;42.562;27.636;2023-04-29T12:59:48;6.15;;;3.00;;
7669;SDS011;3877;42.562;27.636;2023-04-29T13:02:14;4.57;;;2.80;;
7669;SDS011;3877;42.562;27.636;2023-04-29T13:04:43;7.00;;;2.80;;
7669;SDS011;3877;42.562;27.636;2023-04-29T13:07:10;10.23;;;2.88;;
7669;SDS011;3877;42.562;27.636;2023-04-29T13:09:37;4.18;;;2.83;;
7669;SDS011;3877;42.562;27.636;2023-04-29T13:12:05;6.10;;;2.80;;
7669;SDS011;3877;42.562;27.636;2023-04-29T13:14:33;6.47;;;2.72;;
7669;SDS011;3877;42.562;27.636;2023-04-29T13:17:00;5.97;;;3.00;;
7669;SDS011;3877;42.562;27.636;2023-04-29T13:19:28;7.05;;;2.97;;
7669;SDS011;3877;42.562;27.636;2023-04-29T13:21:56;4.80;;;2.83;;
7669;SDS011;3877;42.562;27.636;2023-04-29T13:24:23;5.43;;;2.70;;
7669;SDS011;3877;42.562;27.636;2023-04-29T13:26:49;6.30;;;2.87;;
7669;SDS011;3877;42.562;27.636;2023-04-29T13:29:18;4.97;;;2.70;;
7669;SDS011;3877;42.562;27.636;2023-04-29T13:31:45;8.07;;;2.80;;
7669;SDS011;3877;42.562;27.636;2023-04-29T13:34:12;3.53;;;2.77;;
7669;SDS011;3877;42.562;27.636;2023-04-29T13:36:39;4.93;;;2.45;;
7669;SDS011;3877;42.562;27.636;2023-04-29T13:39:07;5.57;;;2.73;;
7669;SDS011;3877;42.562;27.636;2023-04-29T13:41:34;6.53;;;2.95;;
7669;SDS011;3877;42.562;27.636;2023-04-29T13:44:01;7.43;;;3.20;;
7669;SDS011;3877;42.562;27.636;2023-04-29T13:46:28;7.63;;;2.80;;
7669;SDS011;3877;42.562;27.636;2023-04-29T13:48:56;7.53;;;2.90;;
7669;SDS011;3877;42.562;27.636;2023-04-29T13:51:23;5.32;;;2.75;;
7669;SDS011;3877;42.562;27.636;2023-04-29T13:53:50;7.55;;;2.90;;
7669;SDS011;3877;42.562;27.636;2023-04-29T13:56:18;6.53;;;2.73;;
7669;SDS011;3877;42.562;27.636;2023-04-29T13:58:46;4.72;;;2.75;;
7669;SDS011;3877;42.562;27.636;2023-04-29T14:01:14;5.38;;;3.10;;
7669;SDS011;3877;42.562;27.636;2023-04-29T14:03:41;6.77;;;3.00;;
7669;SDS011;3877;42.562;27.636;2023-04-29T14:06:08;5.35;;;2.72;;
7669;SDS011;3877;42.562;27.636;2023-04-29T14:08:35;4.55;;;2.83;;
7669;SDS011;3877;42.562;27.636;2023-04-29T14:11:02;10.43;;;3.20;;
7669;SDS011;3877;42.562;27.636;2023-04-29T14:13:31;4.40;;;2.50;;
7669;SDS011;3877;42.562;27.636;2023-04-29T14:15:57;6.22;;;3.30;;
7669;SDS011;3877;42.562;27.636;2023-04-29T14:18:27;5.73;;;3.00;;
7669;SDS011;3877;42.562;27.636;2023-04-29T14:20:55;6.75;;;2.88;;
7669;SDS011;3877;42.562;27.636;2023-04-29T14:23:21;6.97;;;2.80;;
7669;SDS011;3877;42.562;27.636;2023-04-29T14:25:48;5.82;;;3.00;;
7669;SDS011;3877;42.562;27.636;2023-04-29T14:28:15;5.27;;;2.70;;
7669;SDS011;3877;42.562;27.636;2023-04-29T14:30:43;5.10;;;2.70;;
7669;SDS011;3877;42.562;27.636;2023-04-29T14:33:10;9.83;;;3.20;;
7669;SDS011;3877;42.562;27.636;2023-04-29T14:35:37;4.13;;;2.45;;
7669;SDS011;3877;42.562;27.636;2023-04-29T14:38:04;4.00;;;2.77;;
7669;SDS011;3877;42.562;27.636;2023-04-29T14:40:31;8.77;;;3.13;;
7669;SDS011;3877;42.562;27.636;2023-04-29T14:42:58;6.30;;;2.90;;
7669;SDS011;3877;42.562;27.636;2023-04-29T14:45:26;4.83;;;3.07;;
7669;SDS011;3877;42.562;27.636;2023-04-29T14:47:54;4.97;;;3.00;;
7669;SDS011;3877;42.562;27.636;2023-04-29T14:50:21;8.48;;;3.20;;
7669;SDS011;3877;42.562;27.636;2023-04-29T14:52:49;9.30;;;3.13;;
7669;SDS011;3877;42.562;27.636;2023-04-29T14:55:16;5.03;;;2.63;;
7669;SDS011;3877;42.562;27.636;2023-04-29T14:57:43;6.50;;;3.57;;
7669;SDS011;3877;42.562;27.636;2023-04-29T15:00:11;7.60;;;3.40;;
7669;SDS011;3877;42.562;27.636;2023-04-29T15:02:38;4.75;;;2.90;;
7669;SDS011;3877;42.562;27.636;2023-04-29T15:05:06;6.00;;;2.83;;
7669;SDS011;3877;42.562;27.636;2023-04-29T15:07:33;8.90;;;3.03;;
7669;SDS011;3877;42.562;27.636;2023-04-29T15:10:00;5.77;;;2.93;;
7669;SDS011;3877;42.562;27.636;2023-04-29T15:12:28;5.68;;;2.88;;
7669;SDS011;3877;42.562;27.636;2023-04-29T15:14:54;8.13;;;2.77;;